Time;durP1;ratioP1;P1;durP2;ratioP2;P2;SDS_P1;SDS_P2;PMS_P1;PMS_P2;Temp;Humidity;BMP_temperature;BMP_pressure;BME280_temperature;BME280_humidity;BME280_pressure;Samples;Min_cycle;Max_cycle;Signal;HPM_P1;HPM_P2
2021/06/24 00:01:48;;;;;;;15.15;10.43;;;28.90;65.40;;;;;;4737972;59;20998;-23
2021/06/24 00:06:49;;;;;;;11.23;10.07;;;28.90;65.40;;;;;;4768561;55;21026;-31
2021/06/24 00:11:50;;;;;;;11.82;10.63;;;28.90;65.40;;;;;;4783463;55;21026;-29
2021/06/24 00:16:51;;;;;;;12.18;10.88;;;28.90;66.00;;;;;;4797069;55;21002;-28
2021/06/24 00:21:51;;;;;;;12.25;10.98;;;28.90;65.40;;;;;;4763005;55;21029;-29
2021/06/24 00:26:52;;;;;;;11.98;10.75;;;28.90;65.40;;;;;;4759135;55;21484;-29
2021/06/24 00:31:53;;;;;;;11.98;10.77;;;28.90;65.40;;;;;;4772220;55;21006;-28
2021/06/24 00:36:54;;;;;;;11.43;10.32;;;28.90;65.40;;;;;;4791060;55;21026;-28
2021/06/24 00:41:55;;;;;;;12.63;10.98;;;28.90;65.40;;;;;;4742542;55;21062;-26
2021/06/24 00:46:58;;;;;;;11.63;10.00;;;28.90;65.40;;;;;;4771773;55;21018;-23
2021/06/24 00:51:59;;;;;;;11.95;10.75;;;28.90;65.40;;;;;;4738267;59;21102;-30
2021/06/24 00:57:00;;;;;;;11.98;10.52;;;28.90;65.40;;;;;;4758820;55;21124;-29
2021/06/24 01:02:03;;;;;;;11.82;10.63;;;28.90;65.40;;;;;;4738490;59;21073;-21
2021/06/24 01:07:04;;;;;;;11.45;10.35;;;28.90;65.40;;;;;;4781099;55;22028;-27
2021/06/24 01:12:08;;;;;;;11.43;10.20;;;28.90;65.40;;;;;;4797712;55;21232;-29
2021/06/24 01:17:09;;;;;;;12.00;10.80;;;28.90;65.40;;;;;;4750833;55;21014;-30
2021/06/24 01:22:10;;;;;;;11.30;10.20;;;28.90;65.40;;;;;;4751335;55;21481;-30
2021/06/24 01:27:10;;;;;;;12.27;10.77;;;28.90;65.40;;;;;;4750809;55;21501;-29
2021/06/24 01:32:11;;;;;;;12.37;10.15;;;28.90;65.40;;;;;;4745065;55;21038;-30
2021/06/24 01:37:12;;;;;;;11.18;10.07;;;28.90;65.40;;;;;;4753285;55;21009;-30
2021/06/24 01:42:16;;;;;;;11.60;10.48;;;28.90;65.40;;;;;;4753714;55;21097;-29
2021/06/24 01:47:17;;;;;;;11.07;9.95;;;28.90;65.40;;;;;;4737019;59;21009;-28
2021/06/24 01:52:18;;;;;;;10.85;9.85;;;28.90;65.30;;;;;;4750282;55;21496;-28
2021/06/24 01:57:19;;;;;;;12.50;10.77;;;28.90;65.40;;;;;;4743307;55;21054;-27
2021/06/24 02:02:19;;;;;;;10.95;9.80;;;28.90;65.30;;;;;;4800301;55;21006;-32
2021/06/24 02:07:20;;;;;;;11.40;10.20;;;28.90;65.30;;;;;;4775290;55;21030;-28
2021/06/24 02:12:21;;;;;;;11.00;9.90;;;28.90;65.40;;;;;;4750271;55;21086;-26
2021/06/24 02:17:22;;;;;;;11.05;10.05;;;28.90;65.30;;;;;;4760870;55;21061;-25
2021/06/24 02:22:23;;;;;;;12.07;10.38;;;28.90;65.30;;;;;;4753745;55;21014;-31
2021/06/24 02:27:24;;;;;;;10.98;9.73;;;28.90;65.30;;;;;;4809185;55;21026;-28
2021/06/24 02:32:24;;;;;;;10.55;9.43;;;28.90;65.30;;;;;;4835095;55;21011;-30
2021/06/24 02:37:27;;;;;;;11.23;10.10;;;28.90;65.30;;;;;;4753217;55;21015;-31
2021/06/24 02:42:27;;;;;;;10.73;9.63;;;28.90;65.30;;;;;;4763585;55;21006;-28
2021/06/24 02:47:28;;;;;;;10.75;9.65;;;28.90;65.30;;;;;;4799708;55;21114;-31
2021/06/24 02:52:30;;;;;;;11.15;10.05;;;28.90;65.30;;;;;;4738300;59;21017;-31
2021/06/24 02:57:33;;;;;;;10.68;9.63;;;28.90;65.20;;;;;;4751323;55;21548;-26
2021/06/24 03:02:34;;;;;;;10.65;9.55;;;28.90;65.10;;;;;;4770536;55;20998;-30
2021/06/24 03:07:34;;;;;;;10.82;9.73;;;28.90;65.10;;;;;;4827991;55;21057;-30
2021/06/24 03:12:35;;;;;;;10.98;9.88;;;28.90;65.20;;;;;;4759621;55;21038;-30
2021/06/24 03:17:37;;;;;;;11.73;9.70;;;28.90;65.00;;;;;;4749633;55;21081;-31
2021/06/24 03:22:38;;;;;;;10.30;9.30;;;28.90;65.00;;;;;;4821503;55;20986;-28
2021/06/24 03:27:38;;;;;;;10.02;8.98;;;28.90;64.80;;;;;;4740094;55;21006;-30
2021/06/24 03:32:39;;;;;;;11.50;9.70;;;28.90;64.80;;;;;;4747272;55;20993;-27
2021/06/24 03:37:40;;;;;;;12.20;9.40;;;28.90;65.30;;;;;;4750540;55;21497;-30
2021/06/24 03:42:41;;;;;;;10.77;9.32;;;28.90;64.70;;;;;;4750780;55;20994;-25
2021/06/24 03:47:42;;;;;;;11.27;9.55;;;28.90;64.60;;;;;;4769065;55;21169;-30
2021/06/24 03:52:43;;;;;;;12.27;9.88;;;28.80;64.50;;;;;;4753277;55;21090;-31
2021/06/24 03:57:44;;;;;;;10.93;8.63;;;28.90;64.50;;;;;;4775909;55;21053;-26
2021/06/24 04:02:45;;;;;;;11.55;8.77;;;28.80;64.40;;;;;;4829007;55;21038;-30
2021/06/24 04:07:45;;;;;;;11.95;9.38;;;28.80;64.40;;;;;;4803301;55;21528;-28
2021/06/24 04:12:46;;;;;;;10.82;9.43;;;28.80;64.30;;;;;;4737582;59;21126;-28
2021/06/24 04:17:47;;;;;;;10.75;8.48;;;28.80;64.30;;;;;;4754256;55;21021;-30
2021/06/24 04:22:49;;;;;;;11.73;8.82;;;28.80;64.20;;;;;;4762861;55;21069;-30
2021/06/24 04:27:50;;;;;;;10.75;8.70;;;28.80;64.20;;;;;;4749568;55;21101;-26
2021/06/24 04:32:52;;;;;;;11.00;8.88;;;28.80;64.20;;;;;;4740381;55;21069;-30
2021/06/24 04:37:53;;;;;;;12.32;8.88;;;28.80;64.10;;;;;;4752646;55;21553;-31
2021/06/24 04:42:54;;;;;;;11.73;8.98;;;28.80;64.10;;;;;;4739606;55;21129;-30
2021/06/24 04:47:55;;;;;;;11.43;8.77;;;28.80;64.10;;;;;;4752653;55;21112;-29
2021/06/24 04:52:56;;;;;;;10.00;8.90;;;28.80;64.00;;;;;;4737543;59;21472;-30
2021/06/24 04:57:57;;;;;;;10.52;8.85;;;28.80;64.00;;;;;;4742136;55;21046;-30
2021/06/24 05:02:57;;;;;;;11.70;8.63;;;28.80;64.00;;;;;;4784966;55;21101;-28
2021/06/24 05:08:06;;;;;;;11.55;8.88;;;28.80;63.90;;;;;;4750677;55;21081;-27
2021/06/24 05:13:07;;;;;;;12.18;9.18;;;28.80;63.90;;;;;;4761442;55;21029;-32
2021/06/24 05:18:08;;;;;;;11.38;8.63;;;28.80;63.90;;;;;;4738503;59;20998;-31
2021/06/24 05:23:09;;;;;;;13.32;8.82;;;28.80;63.90;;;;;;4815067;55;21164;-32
2021/06/24 05:28:10;;;;;;;15.25;9.15;;;28.80;63.90;;;;;;4753481;55;21105;-31
2021/06/24 05:33:12;;;;;;;10.80;9.23;;;28.80;63.80;;;;;;4771047;55;21010;-29
2021/06/24 05:38:15;;;;;;;12.65;9.07;;;28.80;64.50;;;;;;4755688;55;21556;-29
2021/06/24 05:43:17;;;;;;;12.68;9.40;;;28.80;63.90;;;;;;4777246;55;21009;-28
2021/06/24 05:48:18;;;;;;;12.37;9.25;;;28.80;63.80;;;;;;4748407;55;21066;-24
2021/06/24 05:53:19;;;;;;;15.10;9.43;;;28.80;64.50;;;;;;4789506;55;21022;-29
2021/06/24 05:58:22;;;;;;;11.38;9.43;;;28.80;63.80;;;;;;4751384;55;21555;-31
2021/06/24 06:03:24;;;;;;;11.73;9.23;;;28.80;63.80;;;;;;4766371;55;21042;-26
2021/06/24 06:08:27;;;;;;;12.15;9.13;;;28.80;63.80;;;;;;4739682;55;21009;-29
2021/06/24 06:13:28;;;;;;;11.98;9.35;;;28.80;63.80;;;;;;4754410;55;22054;-29
2021/06/24 06:18:29;;;;;;;15.25;9.20;;;28.80;63.80;;;;;;4774684;55;21061;-28
2021/06/24 06:23:30;;;;;;;11.63;9.20;;;28.80;63.80;;;;;;4755915;55;22125;-30
2021/06/24 06:28:31;;;;;;;14.55;9.27;;;28.80;63.80;;;;;;4737797;59;21021;-28
2021/06/24 06:33:32;;;;;;;11.18;9.07;;;28.80;63.80;;;;;;4795267;55;21006;-26
2021/06/24 06:38:33;;;;;;;13.85;9.88;;;28.80;63.80;;;;;;4752003;55;21010;-33
2021/06/24 06:43:33;;;;;;;13.10;9.32;;;28.80;63.80;;;;;;4737801;59;21566;-24
2021/06/24 06:48:35;;;;;;;13.70;9.85;;;28.80;63.80;;;;;;4763018;55;21002;-30
2021/06/24 06:53:36;;;;;;;13.30;10.07;;;28.80;63.80;;;;;;4752953;55;21567;-27
2021/06/24 06:58:37;;;;;;;12.30;9.45;;;28.80;64.30;;;;;;4743706;55;21583;-29
2021/06/24 07:03:38;;;;;;;13.05;9.48;;;28.80;63.80;;;;;;4757566;55;21489;-29
2021/06/24 07:08:39;;;;;;;12.07;9.57;;;28.80;63.90;;;;;;4751883;55;21046;-32
2021/06/24 07:13:40;;;;;;;12.20;9.55;;;28.80;63.80;;;;;;4756985;55;21006;-25
2021/06/24 07:18:41;;;;;;;17.35;11.95;;;28.80;63.70;;;;;;4783873;55;21022;-26
2021/06/24 07:23:41;;;;;;;19.33;12.75;;;28.90;64.60;;;;;;4738454;55;21524;-25
2021/06/24 07:28:43;;;;;;;22.98;13.88;;;28.90;64.60;;;;;;4758854;55;20998;-24
2021/06/24 07:33:43;;;;;;;20.48;14.20;;;29.00;64.30;;;;;;4811237;55;21500;-24
2021/06/24 07:38:44;;;;;;;25.20;15.48;;;29.00;64.90;;;;;;4750527;55;21045;-26
2021/06/24 07:43:45;;;;;;;24.52;15.90;;;29.00;64.30;;;;;;4745788;55;21034;-27
2021/06/24 07:48:49;;;;;;;24.83;17.02;;;29.00;64.40;;;;;;4762972;55;21018;-21
2021/06/24 07:53:50;;;;;;;22.58;15.90;;;29.10;64.70;;;;;;4749831;55;21045;-31
2021/06/24 07:58:52;;;;;;;24.85;16.02;;;29.10;64.90;;;;;;4737782;59;21061;-28
2021/06/24 08:03:54;;;;;;;20.95;15.93;;;29.10;65.10;;;;;;4753967;55;21595;-28
2021/06/24 08:08:55;;;;;;;22.40;15.25;;;29.10;65.40;;;;;;4746197;55;21113;-29
2021/06/24 08:13:56;;;;;;;26.92;16.87;;;29.20;66.30;;;;;;4753075;55;21053;-24
2021/06/24 08:18:57;;;;;;;32.47;16.50;;;29.20;65.00;;;;;;4756284;55;21046;-29
2021/06/24 08:23:58;;;;;;;35.08;16.95;;;29.30;64.50;;;;;;4830055;55;21117;-32
2021/06/24 08:28:58;;;;;;;26.35;15.90;;;29.30;64.30;;;;;;4763020;55;21559;-29
2021/06/24 08:33:59;;;;;;;33.03;16.20;;;29.30;64.50;;;;;;4753020;55;21109;-28
2021/06/24 08:39:00;;;;;;;31.87;17.00;;;29.30;64.50;;;;;;4759118;55;21937;-28
2021/06/24 08:44:01;;;;;;;34.90;16.62;;;29.30;64.30;;;;;;4750124;55;21030;-25
2021/06/24 08:49:03;;;;;;;39.15;17.17;;;29.30;64.30;;;;;;4782542;55;21236;-22
2021/06/24 08:54:04;;;;;;;32.30;16.08;;;29.40;64.90;;;;;;4754343;55;21138;-30
2021/06/24 08:59:05;;;;;;;31.02;15.95;;;29.40;65.00;;;;;;4737396;57;21009;-27
2021/06/24 09:04:13;;;;;;;33.20;17.37;;;29.40;65.30;;;;;;4753862;55;21026;-32
2021/06/24 09:09:25;;;;;;;29.45;15.88;;;29.40;65.40;;;;;;4765630;55;21524;-29
2021/06/24 09:14:43;;;;;;;39.45;15.55;;;29.40;65.40;;;;;;4753445;55;21528;-26
2021/06/24 09:19:44;;;;;;;38.13;15.90;;;29.40;62.00;;;;;;4767353;55;21484;-27
2021/06/24 09:24:47;;;;;;;66.40;38.30;;;29.50;59.70;;;;;;4741645;55;21026;-26
2021/06/24 09:30:11;;;;;;;68.37;41.67;;;29.60;58.60;;;;;;4745807;55;21415;-30
2021/06/24 09:35:29;;;;;;;55.45;31.48;;;29.60;57.70;;;;;;4747154;55;21473;-30
2021/06/24 09:40:58;;;;;;;53.35;24.63;;;29.80;56.60;;;;;;4738505;56;22269;-30
2021/06/24 09:46:18;;;;;;;52.25;20.27;;;29.80;56.00;;;;;;4752796;55;21552;-26
2021/06/24 09:51:31;;;;;;;43.42;16.85;;;29.90;55.40;;;;;;4779230;55;21441;-28
2021/06/24 09:56:46;;;;;;;47.75;16.42;;;29.90;54.50;;;;;;4738432;55;21116;-30
2021/06/24 10:01:48;;;;;;;;;;;30.00;54.40;;;;;;4743669;55;20974;-31
2021/06/24 10:06:52;;;;;;;51.72;17.25;;;30.00;54.10;;;;;;4737151;55;20287;-30
2021/06/24 10:11:54;;;;;;;42.78;16.45;;;30.10;53.70;;;;;;4761706;55;21185;-29
2021/06/24 10:17:00;;;;;;;50.60;16.75;;;30.30;53.50;;;;;;4788610;55;21057;-29
2021/06/24 10:22:47;;;;;;;48.45;13.73;;;30.30;53.00;;;;;;4757186;55;21006;-30
2021/06/24 10:27:56;;;;;;;41.88;13.40;;;30.40;52.60;;;;;;4748959;55;21041;-29
2021/06/24 10:33:06;;;;;;;46.08;13.88;;;30.50;51.70;;;;;;4742414;55;21009;-30
2021/06/24 10:38:09;;;;;;;65.65;25.73;;;30.50;51.10;;;;;;4752283;55;21560;-27
2021/06/24 10:43:14;;;;;;;88.57;45.50;;;30.50;50.30;;;;;;4737891;59;21010;-32
2021/06/24 10:48:32;;;;;;;87.35;46.10;;;30.50;50.10;;;;;;4739070;55;21093;-33
2021/06/24 10:53:47;;;;;;;85.85;42.60;;;30.40;50.80;;;;;;4741809;55;21532;-31
2021/06/24 10:58:49;;;;;;;70.68;39.25;;;30.30;51.20;;;;;;4737722;59;21564;-28
2021/06/24 11:03:52;;;;;;;70.55;38.35;;;30.20;51.70;;;;;;4743612;55;21508;-31
2021/06/24 11:09:14;;;;;;;68.50;38.80;;;30.20;52.20;;;;;;4793515;55;21032;-29
2021/06/24 11:14:49;;;;;;;62.38;37.38;;;30.10;52.50;;;;;;4745739;55;21058;-31
2021/06/24 11:20:15;;;;;;;65.68;38.17;;;30.10;52.90;;;;;;4737911;59;21022;-28
2021/06/24 11:25:17;;;;;;;64.87;37.38;;;30.00;53.10;;;;;;4738511;55;21154;-29
2021/06/24 11:31:02;;;;;;;55.92;34.40;;;30.00;53.50;;;;;;4760744;55;21069;-31
2021/06/24 11:36:20;;;;;;;57.42;34.75;;;30.00;53.70;;;;;;4777282;55;21476;-32
2021/06/24 11:41:22;;;;;;;55.25;35.03;;;29.90;53.90;;;;;;4766655;55;21556;-28
2021/06/24 11:46:26;;;;;;;55.90;32.63;;;29.90;54.20;;;;;;4763805;55;21062;-30
2021/06/24 12:08:57;;;;;;;48.85;32.78;;;29.90;55.90;;;;;;4794549;55;21149;-26
2021/06/24 12:14:13;;;;;;;48.03;32.30;;;29.90;56.40;;;;;;4799618;55;21974;-31
2021/06/24 12:19:13;;;;;;;47.90;32.30;;;29.90;56.90;;;;;;4747320;55;21018;-31
2021/06/24 12:24:32;;;;;;;47.75;31.77;;;29.90;57.30;;;;;;4739066;55;21030;-28
2021/06/24 12:29:40;;;;;;;46.55;30.70;;;29.90;57.50;;;;;;4738454;59;21928;-31
2021/06/24 12:34:41;;;;;;;50.67;30.10;;;29.90;57.80;;;;;;4752666;55;21516;-28
2021/06/24 12:39:47;;;;;;;45.58;29.23;;;29.90;58.20;;;;;;4737737;59;21112;-28
2021/06/24 12:44:48;;;;;;;47.55;30.50;;;29.90;58.60;;;;;;4747118;55;21125;-28
2021/06/24 12:49:48;;;;;;;48.38;29.23;;;29.90;58.90;;;;;;4745926;55;21560;-31
2021/06/24 12:54:49;;;;;;;43.33;29.27;;;29.90;59.30;;;;;;4750965;55;21101;-30
2021/06/24 12:59:50;;;;;;;43.65;27.92;;;30.00;60.30;;;;;;4741696;55;21073;-31
2021/06/24 13:04:51;;;;;;;45.15;29.12;;;30.00;59.90;;;;;;4737612;55;21441;-31
2021/06/24 13:09:52;;;;;;;42.50;26.25;;;29.90;60.00;;;;;;4739027;55;21033;-28
2021/06/24 13:14:52;;;;;;;40.55;26.12;;;29.90;60.10;;;;;;4741202;55;21002;-31
2021/06/24 13:19:58;;;;;;;47.17;27.05;;;29.90;60.30;;;;;;4748591;55;20986;-29
2021/06/24 13:25:04;;;;;;;41.43;26.07;;;29.90;60.40;;;;;;4757212;55;21501;-27
2021/06/24 13:30:14;;;;;;;38.90;25.58;;;29.90;60.70;;;;;;4757846;55;21512;-31
2021/06/24 13:35:28;;;;;;;40.35;26.35;;;30.00;60.90;;;;;;4738001;59;21022;-28
2021/06/24 13:40:43;;;;;;;42.70;25.58;;;29.90;61.00;;;;;;4743785;55;20998;-31
2021/06/24 13:45:46;;;;;;;57.00;24.98;;;29.90;61.20;;;;;;4736558;56;21604;-31
2021/06/24 13:50:47;;;;;;;51.30;22.65;;;30.00;60.60;;;;;;4748733;55;21058;-27
2021/06/24 13:55:49;;;;;;;60.17;22.17;;;30.00;61.30;;;;;;4755028;55;21022;-32
2021/06/24 14:00:52;;;;;;;62.42;23.30;;;30.10;62.30;;;;;;4783155;55;20995;-33
2021/06/24 14:05:52;;;;;;;71.05;33.28;;;30.10;63.30;;;;;;4763711;55;21381;-26
2021/06/24 14:10:53;;;;;;;65.45;35.80;;;30.10;64.30;;;;;;4738996;55;21089;-28
2021/06/24 14:15:54;;;;;;;71.43;35.05;;;30.20;64.70;;;;;;4738410;59;21559;-30
2021/06/24 14:20:56;;;;;;;65.68;33.55;;;30.20;65.20;;;;;;4783103;55;21070;-27
2021/06/24 14:25:58;;;;;;;72.12;34.60;;;30.20;65.70;;;;;;4762957;55;21030;-27
2021/06/24 14:30:59;;;;;;;65.78;33.38;;;30.10;65.80;;;;;;4738547;55;21484;-26
2021/06/24 14:36:05;;;;;;;71.35;33.92;;;30.10;66.00;;;;;;4798090;55;21041;-29
2021/06/24 14:41:08;;;;;;;57.17;31.33;;;30.10;66.10;;;;;;4833656;55;21054;-30
2021/06/24 14:46:08;;;;;;;54.63;31.30;;;30.10;66.20;;;;;;4740382;55;21006;-30
2021/06/24 14:51:09;;;;;;;54.25;26.75;;;30.10;66.60;;;;;;4758325;55;21506;-31
2021/06/24 14:56:18;;;;;;;54.67;27.37;;;30.10;66.80;;;;;;4747860;55;21026;-30
2021/06/24 15:01:20;;;;;;;50.63;27.42;;;30.10;66.90;;;;;;4741005;55;21507;-30
2021/06/24 15:06:21;;;;;;;53.67;28.10;;;30.00;66.90;;;;;;4739273;55;21570;-26
2021/06/24 15:11:22;;;;;;;56.10;27.55;;;30.00;66.90;;;;;;4740185;55;21022;-30
2021/06/24 15:16:23;;;;;;;57.10;26.60;;;30.00;66.90;;;;;;4786797;55;21033;-31
2021/06/24 15:21:27;;;;;;;48.65;26.85;;;29.90;66.80;;;;;;4834912;55;21069;-29
2021/06/24 15:26:28;;;;;;;47.58;26.60;;;29.90;66.80;;;;;;4738440;59;21094;-28
2021/06/24 15:31:28;;;;;;;45.30;26.12;;;29.90;66.80;;;;;;4746613;55;21005;-29
2021/06/24 15:36:32;;;;;;;50.65;26.87;;;29.80;66.60;;;;;;4753226;55;21006;-30
2021/06/24 15:41:33;;;;;;;53.13;27.67;;;29.80;66.60;;;;;;4738092;56;21510;-29
2021/06/24 15:46:34;;;;;;;45.90;25.48;;;29.80;66.60;;;;;;4785213;55;21009;-29
2021/06/24 15:51:36;;;;;;;43.78;24.65;;;29.80;66.50;;;;;;4810477;55;21061;-27
2021/06/24 15:56:37;;;;;;;44.33;26.08;;;29.80;66.40;;;;;;4753117;55;21050;-32
2021/06/24 16:01:38;;;;;;;44.83;26.15;;;29.80;66.40;;;;;;4737885;59;21076;-27
2021/06/24 16:06:40;;;;;;;42.67;25.55;;;29.80;66.40;;;;;;4786303;55;21496;-30
2021/06/24 16:11:41;;;;;;;40.60;25.00;;;29.80;66.30;;;;;;4761363;55;22298;-27
2021/06/24 16:16:42;;;;;;;43.85;25.25;;;29.80;66.30;;;;;;4757020;55;21050;-30
2021/06/24 16:21:43;;;;;;;38.80;23.75;;;29.70;66.20;;;;;;4756775;55;21014;-30
2021/06/24 16:26:48;;;;;;;41.30;24.23;;;29.70;66.00;;;;;;4737297;59;21033;-29
2021/06/24 16:31:49;;;;;;;39.60;24.40;;;29.70;66.00;;;;;;4751356;55;21022;-31
2021/06/24 16:36:50;;;;;;;41.20;24.50;;;29.70;66.10;;;;;;4763392;55;21062;-31
2021/06/24 16:41:53;;;;;;;40.63;24.58;;;29.70;65.90;;;;;;4757726;55;21054;-32
2021/06/24 16:46:54;;;;;;;39.13;23.38;;;29.70;65.90;;;;;;4737375;59;21556;-27
2021/06/24 16:51:55;;;;;;;36.20;24.12;;;29.70;65.90;;;;;;4774039;55;21006;-30
2021/06/24 16:56:56;;;;;;;35.85;22.98;;;29.70;65.70;;;;;;4747037;55;21089;-31
2021/06/24 17:01:57;;;;;;;39.90;23.62;;;29.70;65.70;;;;;;4793107;55;20998;-36
2021/06/24 17:06:58;;;;;;;34.83;22.60;;;29.70;65.70;;;;;;4737752;55;21026;-30
2021/06/24 17:11:59;;;;;;;36.47;23.35;;;29.60;65.60;;;;;;4766905;55;21018;-30
2021/06/24 17:17:00;;;;;;;35.45;22.73;;;29.60;65.50;;;;;;4750173;55;21061;-27
2021/06/24 17:22:01;;;;;;;34.72;23.30;;;29.60;65.40;;;;;;4738964;59;21468;-32
2021/06/24 17:27:03;;;;;;;36.25;23.33;;;29.60;65.40;;;;;;4747492;55;21036;-28
2021/06/24 17:32:05;;;;;;;36.15;22.17;;;29.60;65.30;;;;;;4748476;55;21600;-38
2021/06/24 17:37:06;;;;;;;36.00;23.55;;;29.60;65.20;;;;;;4773114;55;21085;-28
2021/06/24 17:42:13;;;;;;;33.30;22.65;;;29.60;65.20;;;;;;4764150;55;21460;-31
2021/06/24 17:47:15;;;;;;;31.75;21.98;;;29.60;65.20;;;;;;4745487;55;21559;-29
2021/06/24 17:52:16;;;;;;;33.45;21.75;;;29.60;65.10;;;;;;4761917;55;21472;-27
2021/06/24 17:57:17;;;;;;;32.42;22.45;;;29.60;65.10;;;;;;4761657;55;20998;-28
2021/06/24 18:02:18;;;;;;;32.28;21.60;;;29.60;65.00;;;;;;4761397;55;20990;-29
2021/06/24 18:07:21;;;;;;;30.33;21.08;;;29.60;65.00;;;;;;4769129;55;21021;-28
2021/06/24 18:12:22;;;;;;;31.98;22.15;;;29.60;65.10;;;;;;4744645;55;21558;-28
2021/06/24 18:17:22;;;;;;;29.75;21.15;;;29.60;65.00;;;;;;4745951;55;21055;-29
2021/06/24 18:22:23;;;;;;;34.78;22.55;;;29.60;64.90;;;;;;4737930;59;21025;-28
2021/06/24 18:27:24;;;;;;;31.65;21.80;;;29.60;64.90;;;;;;4772468;55;21589;-29
2021/06/24 18:32:26;;;;;;;31.85;21.50;;;29.60;64.90;;;;;;4768127;55;20998;-28
2021/06/24 18:37:27;;;;;;;33.03;22.48;;;29.60;64.90;;;;;;4785441;55;21484;-28
2021/06/24 18:42:27;;;;;;;29.33;21.08;;;29.60;64.80;;;;;;4761899;55;21033;-28
2021/06/24 18:47:28;;;;;;;31.20;20.45;;;29.60;64.90;;;;;;4743941;55;21016;-25
2021/06/24 18:52:29;;;;;;;29.92;21.45;;;29.60;64.80;;;;;;4742856;55;21057;-26
2021/06/24 18:57:32;;;;;;;29.92;20.85;;;29.60;64.70;;;;;;4752754;55;21002;-29
2021/06/24 19:02:33;;;;;;;27.75;20.12;;;29.60;64.70;;;;;;4742562;55;21469;-29
2021/06/24 19:07:34;;;;;;;31.40;21.70;;;29.60;64.70;;;;;;4785081;55;21026;-30
2021/06/24 19:12:35;;;;;;;27.52;20.83;;;29.60;64.70;;;;;;4768302;55;21038;-29
2021/06/24 19:17:36;;;;;;;29.45;20.62;;;29.60;64.70;;;;;;4741103;55;21005;-25
2021/06/24 19:22:37;;;;;;;28.75;20.65;;;29.60;64.60;;;;;;4748102;55;20990;-28
2021/06/24 19:27:38;;;;;;;30.73;20.77;;;29.60;64.70;;;;;;4763974;55;21044;-27
2021/06/24 19:32:39;;;;;;;29.17;20.80;;;29.60;64.70;;;;;;4760615;55;21468;-27
2021/06/24 19:37:40;;;;;;;26.08;19.60;;;29.60;64.60;;;;;;4761976;55;21089;-27
2021/06/24 19:42:41;;;;;;;31.02;20.73;;;29.60;64.60;;;;;;4738430;59;21073;-27
2021/06/24 19:47:43;;;;;;;30.83;20.67;;;29.60;64.50;;;;;;4738410;55;21018;-27
2021/06/24 19:52:44;;;;;;;25.33;18.77;;;29.60;64.50;;;;;;4756945;55;20998;-29
2021/06/24 19:57:47;;;;;;;27.73;19.65;;;29.60;65.10;;;;;;4784746;55;21481;-26
2021/06/24 20:02:48;;;;;;;32.53;20.65;;;29.50;64.40;;;;;;4738543;59;21049;-29
2021/06/24 20:07:50;;;;;;;29.87;18.83;;;29.60;64.40;;;;;;4781997;55;21022;-25
2021/06/24 20:12:53;;;;;;;26.15;20.05;;;29.50;64.30;;;;;;4780303;55;22305;-29
2021/06/24 20:17:54;;;;;;;27.35;19.25;;;29.50;64.20;;;;;;4834466;55;21579;-29
2021/06/24 20:22:55;;;;;;;29.15;19.87;;;29.50;64.20;;;;;;4750551;55;21026;-30
2021/06/24 20:27:57;;;;;;;27.23;20.33;;;29.50;64.20;;;;;;4796662;55;21002;-27
2021/06/24 20:32:59;;;;;;;28.77;19.62;;;29.50;64.10;;;;;;4772675;55;21413;-38
2021/06/24 20:38:00;;;;;;;26.70;19.35;;;29.50;64.10;;;;;;4771313;55;21468;-25
2021/06/24 20:43:04;;;;;;;30.70;18.58;;;29.50;64.10;;;;;;4762484;55;21010;-30
2021/06/24 20:48:06;;;;;;;26.00;18.05;;;29.50;64.10;;;;;;4743772;55;21014;-29
2021/06/24 20:53:07;;;;;;;26.27;18.87;;;29.50;64.00;;;;;;4748251;55;21046;-29
2021/06/24 20:58:08;;;;;;;25.25;18.17;;;29.50;64.00;;;;;;4740968;55;21572;-28
2021/06/24 21:03:09;;;;;;;27.20;18.70;;;29.50;63.90;;;;;;4810615;55;21045;-30
2021/06/24 21:08:10;;;;;;;24.83;17.62;;;29.50;63.90;;;;;;4790870;55;21062;-31
2021/06/24 21:13:11;;;;;;;26.35;17.33;;;29.50;63.80;;;;;;4737719;59;21042;-31
2021/06/24 21:18:12;;;;;;;27.95;18.33;;;29.50;63.80;;;;;;4741952;55;21006;-31
2021/06/24 21:23:12;;;;;;;24.37;18.05;;;29.50;63.80;;;;;;4778436;55;22457;-30
2021/06/24 21:28:13;;;;;;;23.15;17.87;;;29.50;63.80;;;;;;4815493;55;21030;-31
2021/06/24 21:33:14;;;;;;;23.40;17.23;;;29.50;63.80;;;;;;4743404;55;21010;-30
2021/06/24 21:38:15;;;;;;;23.40;17.87;;;29.50;63.80;;;;;;4742877;55;21009;-30
2021/06/24 21:43:16;;;;;;;26.85;17.35;;;29.50;63.80;;;;;;4741368;55;21050;-29
2021/06/24 21:48:17;;;;;;;24.52;17.50;;;29.50;63.80;;;;;;4738091;59;21071;-31
2021/06/24 21:53:18;;;;;;;23.05;16.70;;;29.50;63.80;;;;;;4739253;59;21061;-30
2021/06/24 21:58:19;;;;;;;24.10;17.33;;;29.50;63.90;;;;;;4743085;55;21010;-30
2021/06/24 22:03:20;;;;;;;23.05;16.35;;;29.50;63.80;;;;;;4741193;55;21009;-31
2021/06/24 22:08:21;;;;;;;23.17;16.95;;;29.50;63.80;;;;;;4741446;55;21061;-31
2021/06/24 22:13:22;;;;;;;22.35;16.62;;;29.50;63.80;;;;;;4754573;55;21524;-30
2021/06/24 22:18:23;;;;;;;23.05;17.23;;;29.50;63.80;;;;;;4770155;55;21006;-32
2021/06/24 22:23:24;;;;;;;24.25;16.83;;;29.50;63.80;;;;;;4744967;55;21022;-30
2021/06/24 22:28:25;;;;;;;22.27;15.90;;;29.50;63.80;;;;;;4744670;55;21003;-22
2021/06/24 22:33:26;;;;;;;24.42;16.30;;;29.50;63.80;;;;;;4739173;59;21489;-31
2021/06/24 22:38:26;;;;;;;22.73;16.30;;;29.50;63.80;;;;;;4745967;55;20989;-32
2021/06/24 22:43:27;;;;;;;23.02;15.82;;;29.50;63.80;;;;;;4757168;55;21002;-28
2021/06/24 22:48:28;;;;;;;22.05;15.95;;;29.50;63.80;;;;;;4743581;55;21045;-30
2021/06/24 22:53:29;;;;;;;20.50;15.32;;;29.50;63.80;;;;;;4768377;55;21058;-30
2021/06/24 22:58:30;;;;;;;20.67;15.65;;;29.50;63.80;;;;;;4757135;55;21006;-28
2021/06/24 23:03:31;;;;;;;24.00;16.98;;;29.50;63.80;;;;;;4761082;55;20998;-29
2021/06/24 23:08:32;;;;;;;20.23;15.18;;;29.50;63.80;;;;;;4747614;55;21501;-32
2021/06/24 23:13:33;;;;;;;21.20;15.38;;;29.50;63.80;;;;;;4747417;55;21050;-29
2021/06/24 23:18:33;;;;;;;21.33;14.65;;;29.50;63.80;;;;;;4739026;55;21037;-27
2021/06/24 23:23:34;;;;;;;19.75;15.18;;;29.50;63.80;;;;;;4738667;59;21002;-31
2021/06/24 23:28:35;;;;;;;22.70;16.05;;;29.50;63.80;;;;;;4740760;55;21073;-31
2021/06/24 23:33:36;;;;;;;20.23;14.77;;;29.50;63.80;;;;;;4756582;55;22030;-31
2021/06/24 23:38:36;;;;;;;17.67;15.02;;;29.50;63.80;;;;;;4770066;55;20998;-29
2021/06/24 23:43:37;;;;;;;20.58;15.35;;;29.50;63.80;;;;;;4774692;55;20998;-32
2021/06/24 23:48:38;;;;;;;20.02;14.65;;;29.50;63.80;;;;;;4738244;55;21002;-31
2021/06/24 23:53:39;;;;;;;19.35;14.27;;;29.50;63.80;;;;;;4788263;55;21516;-32
2021/06/24 23:58:40;;;;;;;21.60;14.63;;;29.50;63.80;;;;;;4763612;55;20989;-31
